sensor_id;sensor_type;location;lat;lon;timestamp;P1;durP1;ratioP1;P2;durP2;ratioP2
20421;SDS011;10370;53.102;18.034;2023-04-06T00:02:16;47.30;;;19.67;;
20421;SDS011;10370;53.102;18.034;2023-04-06T00:07:41;47.80;;;18.63;;
20421;SDS011;10370;53.102;18.034;2023-04-06T00:13:14;47.03;;;19.90;;
20421;SDS011;10370;53.102;18.034;2023-04-06T00:18:37;55.13;;;22.53;;
20421;SDS011;10370;53.102;18.034;2023-04-06T00:24:04;76.00;;;28.30;;
20421;SDS011;10370;53.102;18.034;2023-04-06T00:29:29;64.10;;;24.87;;
20421;SDS011;10370;53.102;18.034;2023-04-06T00:34:54;67.07;;;27.93;;
20421;SDS011;10370;53.102;18.034;2023-04-06T00:40:24;62.60;;;25.93;;
20421;SDS011;10370;53.102;18.034;2023-04-06T00:45:50;57.83;;;26.13;;
20421;SDS011;10370;53.102;18.034;2023-04-06T00:51:11;59.10;;;25.47;;
20421;SDS011;10370;53.102;18.034;2023-04-06T00:56:32;64.17;;;24.33;;
20421;SDS011;10370;53.102;18.034;2023-04-06T01:01:57;60.70;;;23.90;;
20421;SDS011;10370;53.102;18.034;2023-04-06T01:07:47;49.40;;;18.77;;
20421;SDS011;10370;53.102;18.034;2023-04-06T01:13:26;49.67;;;18.40;;
20421;SDS011;10370;53.102;18.034;2023-04-06T01:18:51;42.93;;;16.80;;
20421;SDS011;10370;53.102;18.034;2023-04-06T01:24:16;40.27;;;18.47;;
20421;SDS011;10370;53.102;18.034;2023-04-06T01:29:41;41.97;;;18.27;;
20421;SDS011;10370;53.102;18.034;2023-04-06T01:35:14;47.10;;;19.53;;
20421;SDS011;10370;53.102;18.034;2023-04-06T01:40:54;40.70;;;19.80;;
20421;SDS011;10370;53.102;18.034;2023-04-06T01:46:20;42.33;;;18.17;;
20421;SDS011;10370;53.102;18.034;2023-04-06T01:51:47;45.67;;;18.77;;
20421;SDS011;10370;53.102;18.034;2023-04-06T01:57:12;39.30;;;17.53;;
20421;SDS011;10370;53.102;18.034;2023-04-06T02:02:39;41.57;;;18.90;;
20421;SDS011;10370;53.102;18.034;2023-04-06T02:08:04;43.90;;;20.07;;
20421;SDS011;10370;53.102;18.034;2023-04-06T02:13:38;48.07;;;20.20;;
20421;SDS011;10370;53.102;18.034;2023-04-06T02:19:02;45.40;;;20.57;;
20421;SDS011;10370;53.102;18.034;2023-04-06T02:24:49;46.20;;;19.60;;
20421;SDS011;10370;53.102;18.034;2023-04-06T02:30:14;41.83;;;18.93;;
20421;SDS011;10370;53.102;18.034;2023-04-06T02:35:43;48.20;;;20.47;;
20421;SDS011;10370;53.102;18.034;2023-04-06T02:41:08;45.30;;;19.40;;
20421;SDS011;10370;53.102;18.034;2023-04-06T02:46:35;44.90;;;19.77;;
20421;SDS011;10370;53.102;18.034;2023-04-06T02:52:06;50.70;;;22.03;;
20421;SDS011;10370;53.102;18.034;2023-04-06T02:57:31;41.07;;;19.33;;
20421;SDS011;10370;53.102;18.034;2023-04-06T03:02:52;33.60;;;14.83;;
20421;SDS011;10370;53.102;18.034;2023-04-06T03:08:20;35.60;;;16.10;;
20421;SDS011;10370;53.102;18.034;2023-04-06T03:13:48;30.97;;;15.87;;
20421;SDS011;10370;53.102;18.034;2023-04-06T03:19:13;51.83;;;19.20;;
20421;SDS011;10370;53.102;18.034;2023-04-06T03:24:38;54.17;;;19.83;;
20421;SDS011;10370;53.102;18.034;2023-04-06T03:30:03;52.63;;;22.47;;
20421;SDS011;10370;53.102;18.034;2023-04-06T03:35:42;48.50;;;19.47;;
20421;SDS011;10370;53.102;18.034;2023-04-06T03:41:08;38.63;;;17.40;;
20421;SDS011;10370;53.102;18.034;2023-04-06T03:46:42;46.70;;;17.23;;
20421;SDS011;10370;53.102;18.034;2023-04-06T03:52:23;41.30;;;16.67;;
20421;SDS011;10370;53.102;18.034;2023-04-06T03:57:48;44.67;;;18.03;;
20421;SDS011;10370;53.102;18.034;2023-04-06T04:03:44;38.20;;;16.50;;
20421;SDS011;10370;53.102;18.034;2023-04-06T04:09:31;46.57;;;16.93;;
20421;SDS011;10370;53.102;18.034;2023-04-06T04:15:03;41.80;;;17.37;;
20421;SDS011;10370;53.102;18.034;2023-04-06T04:26:56;40.23;;;16.57;;
20421;SDS011;10370;53.102;18.034;2023-04-06T04:32:33;55.47;;;17.03;;
20421;SDS011;10370;53.102;18.034;2023-04-06T04:38:30;40.93;;;15.20;;
20421;SDS011;10370;53.102;18.034;2023-04-06T04:50:39;43.53;;;17.07;;
20421;SDS011;10370;53.102;18.034;2023-04-06T04:56:00;43.63;;;17.57;;
20421;SDS011;10370;53.102;18.034;2023-04-06T05:01:21;41.33;;;17.07;;
20421;SDS011;10370;53.102;18.034;2023-04-06T05:06:45;45.60;;;17.00;;
20421;SDS011;10370;53.102;18.034;2023-04-06T05:12:32;49.90;;;18.40;;
20421;SDS011;10370;53.102;18.034;2023-04-06T05:17:58;42.00;;;17.00;;
20421;SDS011;10370;53.102;18.034;2023-04-06T05:23:40;40.50;;;18.33;;
20421;SDS011;10370;53.102;18.034;2023-04-06T05:29:10;46.83;;;20.67;;
20421;SDS011;10370;53.102;18.034;2023-04-06T05:34:33;60.47;;;23.37;;
20421;SDS011;10370;53.102;18.034;2023-04-06T05:40:08;77.57;;;33.03;;
20421;SDS011;10370;53.102;18.034;2023-04-06T05:45:32;98.13;;;35.90;;
20421;SDS011;10370;53.102;18.034;2023-04-06T05:50:57;78.00;;;31.90;;
20421;SDS011;10370;53.102;18.034;2023-04-06T05:56:23;85.37;;;33.27;;
20421;SDS011;10370;53.102;18.034;2023-04-06T06:01:45;63.57;;;25.13;;
20421;SDS011;10370;53.102;18.034;2023-04-06T06:07:08;66.20;;;26.80;;
20421;SDS011;10370;53.102;18.034;2023-04-06T06:12:29;69.27;;;26.83;;
20421;SDS011;10370;53.102;18.034;2023-04-06T06:17:50;61.33;;;23.17;;
20421;SDS011;10370;53.102;18.034;2023-04-06T06:23:11;50.43;;;23.50;;
20421;SDS011;10370;53.102;18.034;2023-04-06T06:28:33;52.00;;;22.87;;
20421;SDS011;10370;53.102;18.034;2023-04-06T06:33:54;51.90;;;24.13;;
20421;SDS011;10370;53.102;18.034;2023-04-06T06:39:28;61.43;;;24.57;;
20421;SDS011;10370;53.102;18.034;2023-04-06T06:44:50;70.53;;;29.20;;
20421;SDS011;10370;53.102;18.034;2023-04-06T06:50:14;61.87;;;27.10;;
20421;SDS011;10370;53.102;18.034;2023-04-06T06:55:45;62.33;;;25.70;;
20421;SDS011;10370;53.102;18.034;2023-04-06T07:01:08;66.47;;;27.57;;
20421;SDS011;10370;53.102;18.034;2023-04-06T07:06:31;87.57;;;34.10;;
20421;SDS011;10370;53.102;18.034;2023-04-06T07:11:53;57.07;;;27.40;;
20421;SDS011;10370;53.102;18.034;2023-04-06T07:17:14;74.10;;;29.10;;
20421;SDS011;10370;53.102;18.034;2023-04-06T07:22:35;64.40;;;28.47;;
20421;SDS011;10370;53.102;18.034;2023-04-06T07:28:05;69.43;;;30.50;;
20421;SDS011;10370;53.102;18.034;2023-04-06T07:33:26;99.47;;;41.67;;
20421;SDS011;10370;53.102;18.034;2023-04-06T07:38:53;69.43;;;24.47;;
20421;SDS011;10370;53.102;18.034;2023-04-06T07:44:15;52.90;;;22.47;;
20421;SDS011;10370;53.102;18.034;2023-04-06T07:49:36;51.33;;;23.03;;
20421;SDS011;10370;53.102;18.034;2023-04-06T07:55:00;50.25;;;23.13;;
20421;SDS011;10370;53.102;18.034;2023-04-06T08:00:25;48.60;;;21.97;;
20421;SDS011;10370;53.102;18.034;2023-04-06T08:05:50;56.67;;;22.57;;
20421;SDS011;10370;53.102;18.034;2023-04-06T08:11:12;59.50;;;27.27;;
20421;SDS011;10370;53.102;18.034;2023-04-06T08:16:38;57.43;;;26.63;;
20421;SDS011;10370;53.102;18.034;2023-04-06T08:22:01;46.80;;;22.97;;
20421;SDS011;10370;53.102;18.034;2023-04-06T08:27:26;31.63;;;15.67;;
20421;SDS011;10370;53.102;18.034;2023-04-06T08:32:51;21.73;;;10.97;;
20421;SDS011;10370;53.102;18.034;2023-04-06T08:38:12;21.43;;;10.00;;
20421;SDS011;10370;53.102;18.034;2023-04-06T08:43:35;13.48;;;6.88;;
20421;SDS011;10370;53.102;18.034;2023-04-06T08:49:10;20.17;;;8.70;;
20421;SDS011;10370;53.102;18.034;2023-04-06T08:54:32;23.27;;;9.30;;
20421;SDS011;10370;53.102;18.034;2023-04-06T08:59:55;22.43;;;10.67;;
20421;SDS011;10370;53.102;18.034;2023-04-06T09:05:19;18.27;;;8.63;;
20421;SDS011;10370;53.102;18.034;2023-04-06T09:10:42;25.17;;;9.80;;
20421;SDS011;10370;53.102;18.034;2023-04-06T09:16:07;15.13;;;9.00;;
20421;SDS011;10370;53.102;18.034;2023-04-06T09:21:28;19.67;;;9.77;;
20421;SDS011;10370;53.102;18.034;2023-04-06T09:26:49;16.83;;;9.50;;
20421;SDS011;10370;53.102;18.034;2023-04-06T09:32:11;23.43;;;12.73;;
20421;SDS011;10370;53.102;18.034;2023-04-06T09:37:32;13.50;;;7.77;;
20421;SDS011;10370;53.102;18.034;2023-04-06T09:42:53;14.50;;;7.83;;
20421;SDS011;10370;53.102;18.034;2023-04-06T09:48:18;15.10;;;8.13;;
20421;SDS011;10370;53.102;18.034;2023-04-06T09:53:44;14.10;;;7.87;;
20421;SDS011;10370;53.102;18.034;2023-04-06T09:59:13;15.13;;;9.37;;
20421;SDS011;10370;53.102;18.034;2023-04-06T10:05:16;17.87;;;9.73;;
20421;SDS011;10370;53.102;18.034;2023-04-06T10:10:49;15.20;;;8.70;;
20421;SDS011;10370;53.102;18.034;2023-04-06T10:16:12;14.43;;;8.03;;
20421;SDS011;10370;53.102;18.034;2023-04-06T10:21:34;16.93;;;8.37;;
20421;SDS011;10370;53.102;18.034;2023-04-06T10:27:03;15.00;;;8.27;;
20421;SDS011;10370;53.102;18.034;2023-04-06T10:32:34;15.03;;;8.40;;
20421;SDS011;10370;53.102;18.034;2023-04-06T10:38:03;18.43;;;10.03;;
20421;SDS011;10370;53.102;18.034;2023-04-06T10:43:25;13.43;;;8.43;;
20421;SDS011;10370;53.102;18.034;2023-04-06T10:48:46;13.47;;;8.13;;
20421;SDS011;10370;53.102;18.034;2023-04-06T10:54:08;14.93;;;8.13;;
20421;SDS011;10370;53.102;18.034;2023-04-06T10:59:31;12.73;;;8.13;;
20421;SDS011;10370;53.102;18.034;2023-04-06T11:04:57;16.47;;;8.40;;
20421;SDS011;10370;53.102;18.034;2023-04-06T11:10:22;14.10;;;8.15;;
20421;SDS011;10370;53.102;18.034;2023-04-06T11:15:47;14.87;;;7.50;;
20421;SDS011;10370;53.102;18.034;2023-04-06T11:21:09;12.98;;;7.70;;
20421;SDS011;10370;53.102;18.034;2023-04-06T11:26:30;10.85;;;7.00;;
20421;SDS011;10370;53.102;18.034;2023-04-06T11:31:53;15.85;;;7.95;;
20421;SDS011;10370;53.102;18.034;2023-04-06T11:37:16;12.68;;;8.07;;
20421;SDS011;10370;53.102;18.034;2023-04-06T11:42:41;12.75;;;7.60;;
20421;SDS011;10370;53.102;18.034;2023-04-06T11:48:04;13.00;;;8.07;;
20421;SDS011;10370;53.102;18.034;2023-04-06T11:53:45;11.83;;;7.30;;
20421;SDS011;10370;53.102;18.034;2023-04-06T11:59:08;12.60;;;7.20;;
20421;SDS011;10370;53.102;18.034;2023-04-06T12:04:33;12.33;;;6.40;;
20421;SDS011;10370;53.102;18.034;2023-04-06T12:09:56;10.77;;;6.35;;
20421;SDS011;10370;53.102;18.034;2023-04-06T12:15:23;13.40;;;6.82;;
20421;SDS011;10370;53.102;18.034;2023-04-06T12:20:45;12.33;;;6.97;;
20421;SDS011;10370;53.102;18.034;2023-04-06T12:26:06;12.80;;;6.78;;
20421;SDS011;10370;53.102;18.034;2023-04-06T12:31:32;10.60;;;6.32;;
20421;SDS011;10370;53.102;18.034;2023-04-06T12:36:59;17.63;;;7.03;;
20421;SDS011;10370;53.102;18.034;2023-04-06T12:42:20;12.23;;;6.28;;
20421;SDS011;10370;53.102;18.034;2023-04-06T12:47:45;14.07;;;6.25;;
20421;SDS011;10370;53.102;18.034;2023-04-06T12:53:08;10.50;;;6.28;;
20421;SDS011;10370;53.102;18.034;2023-04-06T12:58:29;11.15;;;6.40;;
20421;SDS011;10370;53.102;18.034;2023-04-06T13:03:51;11.82;;;6.50;;
20421;SDS011;10370;53.102;18.034;2023-04-06T13:09:14;9.52;;;6.05;;
20421;SDS011;10370;53.102;18.034;2023-04-06T13:14:35;11.93;;;6.53;;
20421;SDS011;10370;53.102;18.034;2023-04-06T13:20:02;10.38;;;6.43;;
20421;SDS011;10370;53.102;18.034;2023-04-06T13:25:29;32.80;;;15.25;;
20421;SDS011;10370;53.102;18.034;2023-04-06T13:30:55;16.08;;;7.43;;
20421;SDS011;10370;53.102;18.034;2023-04-06T13:36:18;18.05;;;7.68;;
20421;SDS011;10370;53.102;18.034;2023-04-06T13:41:39;10.95;;;6.63;;
20421;SDS011;10370;53.102;18.034;2023-04-06T13:47:04;13.20;;;6.60;;
20421;SDS011;10370;53.102;18.034;2023-04-06T13:52:28;15.00;;;6.75;;
20421;SDS011;10370;53.102;18.034;2023-04-06T13:57:53;20.95;;;7.30;;
20421;SDS011;10370;53.102;18.034;2023-04-06T14:03:18;13.50;;;7.55;;
20421;SDS011;10370;53.102;18.034;2023-04-06T14:08:43;13.60;;;7.30;;
20421;SDS011;10370;53.102;18.034;2023-04-06T14:14:06;12.50;;;7.35;;
20421;SDS011;10370;53.102;18.034;2023-04-06T14:19:30;15.50;;;7.35;;
20421;SDS011;10370;53.102;18.034;2023-04-06T14:24:52;15.68;;;7.55;;
20421;SDS011;10370;53.102;18.034;2023-04-06T14:30:13;15.80;;;7.45;;
20421;SDS011;10370;53.102;18.034;2023-04-06T14:35:37;15.00;;;7.45;;
20421;SDS011;10370;53.102;18.034;2023-04-06T14:40:59;12.55;;;7.80;;
20421;SDS011;10370;53.102;18.034;2023-04-06T14:46:25;17.13;;;7.28;;
20421;SDS011;10370;53.102;18.034;2023-04-06T14:51:54;12.57;;;8.20;;
20421;SDS011;10370;53.102;18.034;2023-04-06T14:57:15;11.85;;;7.57;;
20421;SDS011;10370;53.102;18.034;2023-04-06T15:02:41;15.75;;;7.97;;
20421;SDS011;10370;53.102;18.034;2023-04-06T15:08:05;16.77;;;8.25;;
20421;SDS011;10370;53.102;18.034;2023-04-06T15:13:33;14.30;;;8.30;;
20421;SDS011;10370;53.102;18.034;2023-04-06T15:18:59;15.38;;;8.93;;
20421;SDS011;10370;53.102;18.034;2023-04-06T15:24:24;17.98;;;9.10;;
20421;SDS011;10370;53.102;18.034;2023-04-06T15:29:49;14.38;;;8.60;;
20421;SDS011;10370;53.102;18.034;2023-04-06T15:35:15;16.50;;;7.95;;
20421;SDS011;10370;53.102;18.034;2023-04-06T15:40:47;15.43;;;7.57;;
20421;SDS011;10370;53.102;18.034;2023-04-06T15:46:10;17.25;;;7.70;;
20421;SDS011;10370;53.102;18.034;2023-04-06T15:51:34;12.98;;;7.30;;
20421;SDS011;10370;53.102;18.034;2023-04-06T15:56:59;14.82;;;7.63;;
20421;SDS011;10370;53.102;18.034;2023-04-06T16:02:25;15.85;;;6.97;;
20421;SDS011;10370;53.102;18.034;2023-04-06T16:07:48;12.52;;;7.75;;
20421;SDS011;10370;53.102;18.034;2023-04-06T16:13:11;14.27;;;7.13;;
20421;SDS011;10370;53.102;18.034;2023-04-06T16:18:35;14.13;;;7.47;;
20421;SDS011;10370;53.102;18.034;2023-04-06T16:24:01;15.03;;;7.90;;
20421;SDS011;10370;53.102;18.034;2023-04-06T16:29:22;12.80;;;6.68;;
20421;SDS011;10370;53.102;18.034;2023-04-06T16:34:48;12.40;;;7.13;;
20421;SDS011;10370;53.102;18.034;2023-04-06T16:40:14;14.27;;;8.30;;
20421;SDS011;10370;53.102;18.034;2023-04-06T16:45:39;11.20;;;6.43;;
20421;SDS011;10370;53.102;18.034;2023-04-06T16:57:41;15.13;;;7.67;;
20421;SDS011;10370;53.102;18.034;2023-04-06T17:03:10;14.67;;;6.60;;
20421;SDS011;10370;53.102;18.034;2023-04-06T17:08:33;20.80;;;6.77;;
20421;SDS011;10370;53.102;18.034;2023-04-06T17:14:11;12.20;;;6.33;;
20421;SDS011;10370;53.102;18.034;2023-04-06T17:25:32;14.13;;;6.40;;
20421;SDS011;10370;53.102;18.034;2023-04-06T17:30:58;13.30;;;6.87;;
20421;SDS011;10370;53.102;18.034;2023-04-06T17:36:22;12.57;;;5.97;;
20421;SDS011;10370;53.102;18.034;2023-04-06T17:41:47;18.07;;;8.17;;
20421;SDS011;10370;53.102;18.034;2023-04-06T17:47:10;11.00;;;5.10;;
20421;SDS011;10370;53.102;18.034;2023-04-06T17:53:06;9.77;;;5.50;;
20421;SDS011;10370;53.102;18.034;2023-04-06T17:58:54;11.23;;;5.47;;
20421;SDS011;10370;53.102;18.034;2023-04-06T18:04:19;11.03;;;5.00;;
20421;SDS011;10370;53.102;18.034;2023-04-06T18:09:44;13.23;;;5.40;;
20421;SDS011;10370;53.102;18.034;2023-04-06T18:15:05;9.07;;;5.30;;
20421;SDS011;10370;53.102;18.034;2023-04-06T18:20:32;13.07;;;5.40;;
20421;SDS011;10370;53.102;18.034;2023-04-06T18:25:59;16.00;;;5.53;;
20421;SDS011;10370;53.102;18.034;2023-04-06T18:31:21;10.53;;;4.83;;
20421;SDS011;10370;53.102;18.034;2023-04-06T18:36:47;12.67;;;4.77;;
20421;SDS011;10370;53.102;18.034;2023-04-06T18:42:08;12.40;;;6.20;;
20421;SDS011;10370;53.102;18.034;2023-04-06T18:47:29;12.07;;;5.67;;
20421;SDS011;10370;53.102;18.034;2023-04-06T18:52:50;18.27;;;6.80;;
20421;SDS011;10370;53.102;18.034;2023-04-06T18:58:15;9.00;;;4.73;;
20421;SDS011;10370;53.102;18.034;2023-04-06T19:04:04;11.67;;;5.57;;
20421;SDS011;10370;53.102;18.034;2023-04-06T19:09:39;11.27;;;5.00;;
20421;SDS011;10370;53.102;18.034;2023-04-06T19:15:05;8.63;;;5.30;;
20421;SDS011;10370;53.102;18.034;2023-04-06T19:20:45;10.87;;;5.23;;
20421;SDS011;10370;53.102;18.034;2023-04-06T19:26:09;10.17;;;5.27;;
20421;SDS011;10370;53.102;18.034;2023-04-06T19:31:40;13.83;;;6.07;;
20421;SDS011;10370;53.102;18.034;2023-04-06T19:37:10;15.00;;;5.70;;
20421;SDS011;10370;53.102;18.034;2023-04-06T19:42:34;14.17;;;6.00;;
20421;SDS011;10370;53.102;18.034;2023-04-06T19:48:10;13.40;;;6.40;;
20421;SDS011;10370;53.102;18.034;2023-04-06T19:53:43;12.67;;;5.97;;
20421;SDS011;10370;53.102;18.034;2023-04-06T19:59:06;12.47;;;5.53;;
20421;SDS011;10370;53.102;18.034;2023-04-06T20:04:35;14.53;;;7.00;;
20421;SDS011;10370;53.102;18.034;2023-04-06T20:10:00;10.07;;;5.43;;
20421;SDS011;10370;53.102;18.034;2023-04-06T20:15:47;11.33;;;6.10;;
20421;SDS011;10370;53.102;18.034;2023-04-06T20:21:25;11.97;;;5.87;;
20421;SDS011;10370;53.102;18.034;2023-04-06T20:26:46;14.40;;;6.60;;
20421;SDS011;10370;53.102;18.034;2023-04-06T20:32:13;13.97;;;6.43;;
20421;SDS011;10370;53.102;18.034;2023-04-06T20:37:48;11.43;;;6.00;;
20421;SDS011;10370;53.102;18.034;2023-04-06T20:43:09;12.33;;;6.93;;
20421;SDS011;10370;53.102;18.034;2023-04-06T20:48:30;10.97;;;5.90;;
20421;SDS011;10370;53.102;18.034;2023-04-06T20:54:10;16.70;;;7.73;;
20421;SDS011;10370;53.102;18.034;2023-04-06T20:59:31;25.07;;;14.40;;
20421;SDS011;10370;53.102;18.034;2023-04-06T21:04:57;18.23;;;8.10;;
20421;SDS011;10370;53.102;18.034;2023-04-06T21:10:26;13.63;;;7.47;;
20421;SDS011;10370;53.102;18.034;2023-04-06T21:16:17;13.13;;;7.67;;
20421;SDS011;10370;53.102;18.034;2023-04-06T21:21:51;16.77;;;8.63;;
20421;SDS011;10370;53.102;18.034;2023-04-06T21:27:19;18.87;;;9.27;;
20421;SDS011;10370;53.102;18.034;2023-04-06T21:32:44;17.53;;;9.33;;
20421;SDS011;10370;53.102;18.034;2023-04-06T21:38:10;23.83;;;9.30;;
20421;SDS011;10370;53.102;18.034;2023-04-06T21:43:38;21.43;;;11.47;;
20421;SDS011;10370;53.102;18.034;2023-04-06T21:49:02;18.83;;;9.60;;
20421;SDS011;10370;53.102;18.034;2023-04-06T21:54:32;104.50;;;46.27;;
20421;SDS011;10370;53.102;18.034;2023-04-06T22:00:06;23.17;;;10.37;;
20421;SDS011;10370;53.102;18.034;2023-04-06T22:05:31;30.13;;;13.50;;
20421;SDS011;10370;53.102;18.034;2023-04-06T22:11:07;20.87;;;10.50;;
20421;SDS011;10370;53.102;18.034;2023-04-06T22:16:47;21.40;;;10.13;;
20421;SDS011;10370;53.102;18.034;2023-04-06T22:22:15;20.33;;;10.03;;
20421;SDS011;10370;53.102;18.034;2023-04-06T22:27:47;23.47;;;10.43;;
20421;SDS011;10370;53.102;18.034;2023-04-06T22:33:10;24.87;;;11.97;;
20421;SDS011;10370;53.102;18.034;2023-04-06T22:38:36;41.80;;;19.93;;
20421;SDS011;10370;53.102;18.034;2023-04-06T22:43:58;71.80;;;24.77;;
20421;SDS011;10370;53.102;18.034;2023-04-06T22:49:24;27.23;;;13.30;;
20421;SDS011;10370;53.102;18.034;2023-04-06T22:54:49;34.77;;;15.47;;
20421;SDS011;10370;53.102;18.034;2023-04-06T23:00:13;36.27;;;16.07;;
20421;SDS011;10370;53.102;18.034;2023-04-06T23:05:39;32.40;;;16.10;;
20421;SDS011;10370;53.102;18.034;2023-04-06T23:11:04;31.70;;;15.50;;
20421;SDS011;10370;53.102;18.034;2023-04-06T23:16:32;32.77;;;15.37;;
20421;SDS011;10370;53.102;18.034;2023-04-06T23:21:59;29.83;;;14.77;;
20421;SDS011;10370;53.102;18.034;2023-04-06T23:27:24;28.67;;;13.93;;
20421;SDS011;10370;53.102;18.034;2023-04-06T23:32:54;46.33;;;18.70;;
20421;SDS011;10370;53.102;18.034;2023-04-06T23:38:20;33.67;;;15.10;;
20421;SDS011;10370;53.102;18.034;2023-04-06T23:43:42;37.40;;;15.27;;
20421;SDS011;10370;53.102;18.034;2023-04-06T23:49:08;32.77;;;14.83;;
20421;SDS011;10370;53.102;18.034;2023-04-06T23:54:42;29.03;;;13.27;;
